sensor_id;sensor_type;location;lat;lon;timestamp;P1;durP1;ratioP1;P2;durP2;ratioP2
77105;SDS011;66057;54.718;18.426;2023-02-28T00:00:33;20.75;;;9.05;;
77105;SDS011;66057;54.718;18.426;2023-02-28T00:03:14;12.25;;;7.80;;
77105;SDS011;66057;54.718;18.426;2023-02-28T00:05:40;18.02;;;9.50;;
77105;SDS011;66057;54.718;18.426;2023-02-28T00:10:33;14.30;;;8.70;;
77105;SDS011;66057;54.718;18.426;2023-02-28T00:13:01;20.52;;;9.48;;
77105;SDS011;66057;54.718;18.426;2023-02-28T00:15:31;24.48;;;10.02;;
77105;SDS011;66057;54.718;18.426;2023-02-28T00:18:05;23.92;;;12.82;;
77105;SDS011;66057;54.718;18.426;2023-02-28T00:20:33;24.27;;;13.02;;
77105;SDS011;66057;54.718;18.426;2023-02-28T00:22:59;19.00;;;9.63;;
77105;SDS011;66057;54.718;18.426;2023-02-28T00:25:25;15.75;;;8.60;;
77105;SDS011;66057;54.718;18.426;2023-02-28T00:27:52;10.45;;;6.40;;
77105;SDS011;66057;54.718;18.426;2023-02-28T00:30:18;9.30;;;7.53;;
77105;SDS011;66057;54.718;18.426;2023-02-28T00:32:46;14.18;;;8.57;;
77105;SDS011;66057;54.718;18.426;2023-02-28T00:35:12;10.82;;;7.68;;
77105;SDS011;66057;54.718;18.426;2023-02-28T00:37:39;17.08;;;8.43;;
77105;SDS011;66057;54.718;18.426;2023-02-28T00:40:10;14.30;;;7.10;;
77105;SDS011;66057;54.718;18.426;2023-02-28T00:42:38;16.33;;;8.27;;
77105;SDS011;66057;54.718;18.426;2023-02-28T00:45:04;10.73;;;7.13;;
77105;SDS011;66057;54.718;18.426;2023-02-28T00:47:31;8.75;;;6.38;;
77105;SDS011;66057;54.718;18.426;2023-02-28T00:49:57;18.23;;;7.70;;
77105;SDS011;66057;54.718;18.426;2023-02-28T00:52:23;8.82;;;5.63;;
77105;SDS011;66057;54.718;18.426;2023-02-28T00:54:52;11.75;;;7.40;;
77105;SDS011;66057;54.718;18.426;2023-02-28T00:57:18;9.02;;;6.60;;
77105;SDS011;66057;54.718;18.426;2023-02-28T00:59:44;13.95;;;6.03;;
77105;SDS011;66057;54.718;18.426;2023-02-28T01:02:10;8.93;;;4.70;;
77105;SDS011;66057;54.718;18.426;2023-02-28T01:04:36;12.13;;;5.68;;
77105;SDS011;66057;54.718;18.426;2023-02-28T01:07:08;12.50;;;6.40;;
77105;SDS011;66057;54.718;18.426;2023-02-28T01:09:38;11.05;;;7.32;;
77105;SDS011;66057;54.718;18.426;2023-02-28T01:12:04;12.95;;;6.85;;
77105;SDS011;66057;54.718;18.426;2023-02-28T01:14:30;6.05;;;4.93;;
77105;SDS011;66057;54.718;18.426;2023-02-28T01:19:23;8.82;;;5.35;;
77105;SDS011;66057;54.718;18.426;2023-02-28T01:21:50;7.50;;;4.93;;
77105;SDS011;66057;54.718;18.426;2023-02-28T01:24:15;8.23;;;4.40;;
77105;SDS011;66057;54.718;18.426;2023-02-28T01:26:42;19.98;;;8.55;;
77105;SDS011;66057;54.718;18.426;2023-02-28T01:29:08;13.20;;;5.70;;
77105;SDS011;66057;54.718;18.426;2023-02-28T01:31:34;20.48;;;7.70;;
77105;SDS011;66057;54.718;18.426;2023-02-28T01:34:00;17.77;;;8.45;;
77105;SDS011;66057;54.718;18.426;2023-02-28T01:36:26;7.40;;;5.97;;
77105;SDS011;66057;54.718;18.426;2023-02-28T01:38:57;7.75;;;4.63;;
77105;SDS011;66057;54.718;18.426;2023-02-28T01:41:27;15.93;;;6.20;;
77105;SDS011;66057;54.718;18.426;2023-02-28T01:44:06;13.38;;;5.80;;
77105;SDS011;66057;54.718;18.426;2023-02-28T01:46:52;11.30;;;5.57;;
77105;SDS011;66057;54.718;18.426;2023-02-28T01:49:18;10.38;;;4.28;;
77105;SDS011;66057;54.718;18.426;2023-02-28T01:51:46;8.77;;;5.03;;
77105;SDS011;66057;54.718;18.426;2023-02-28T01:54:22;11.00;;;6.28;;
77105;SDS011;66057;54.718;18.426;2023-02-28T01:56:53;12.18;;;6.72;;
77105;SDS011;66057;54.718;18.426;2023-02-28T01:59:31;10.98;;;5.65;;
77105;SDS011;66057;54.718;18.426;2023-02-28T02:02:02;9.02;;;7.18;;
77105;SDS011;66057;54.718;18.426;2023-02-28T02:04:40;9.98;;;8.13;;
77105;SDS011;66057;54.718;18.426;2023-02-28T02:07:17;12.52;;;8.77;;
77105;SDS011;66057;54.718;18.426;2023-02-28T02:09:43;6.72;;;5.20;;
77105;SDS011;66057;54.718;18.426;2023-02-28T02:15:12;14.70;;;8.30;;
77105;SDS011;66057;54.718;18.426;2023-02-28T02:17:48;11.57;;;4.80;;
77105;SDS011;66057;54.718;18.426;2023-02-28T02:35:34;8.07;;;5.40;;
77105;SDS011;66057;54.718;18.426;2023-02-28T02:45:28;15.35;;;8.65;;
77105;SDS011;66057;54.718;18.426;2023-02-28T02:48:03;16.50;;;8.82;;
77105;SDS011;66057;54.718;18.426;2023-02-28T02:50:36;16.75;;;7.28;;
77105;SDS011;66057;54.718;18.426;2023-02-28T02:53:07;9.38;;;5.30;;
77105;SDS011;66057;54.718;18.426;2023-02-28T02:55:38;11.73;;;7.65;;
77105;SDS011;66057;54.718;18.426;2023-02-28T02:58:09;16.20;;;8.60;;
77105;SDS011;66057;54.718;18.426;2023-02-28T03:00:42;9.18;;;6.03;;
77105;SDS011;66057;54.718;18.426;2023-02-28T03:03:14;8.02;;;6.38;;
77105;SDS011;66057;54.718;18.426;2023-02-28T03:05:49;13.57;;;8.02;;
77105;SDS011;66057;54.718;18.426;2023-02-28T03:08:18;14.75;;;7.63;;
77105;SDS011;66057;54.718;18.426;2023-02-28T03:10:46;14.35;;;7.65;;
77105;SDS011;66057;54.718;18.426;2023-02-28T03:26:54;8.05;;;4.38;;
77105;SDS011;66057;54.718;18.426;2023-02-28T03:35:01;5.07;;;4.55;;
77105;SDS011;66057;54.718;18.426;2023-02-28T03:37:35;9.98;;;5.60;;
77105;SDS011;66057;54.718;18.426;2023-02-28T03:40:08;9.18;;;4.47;;
77105;SDS011;66057;54.718;18.426;2023-02-28T03:42:40;10.27;;;5.88;;
77105;SDS011;66057;54.718;18.426;2023-02-28T03:45:18;12.02;;;6.40;;
77105;SDS011;66057;54.718;18.426;2023-02-28T03:50:38;10.63;;;6.65;;
77105;SDS011;66057;54.718;18.426;2023-02-28T03:56:02;7.30;;;4.85;;
77105;SDS011;66057;54.718;18.426;2023-02-28T04:03:59;14.65;;;7.13;;
77105;SDS011;66057;54.718;18.426;2023-02-28T04:06:25;9.43;;;6.82;;
77105;SDS011;66057;54.718;18.426;2023-02-28T04:08:52;31.40;;;21.52;;
77105;SDS011;66057;54.718;18.426;2023-02-28T04:14:04;6.55;;;4.65;;
77105;SDS011;66057;54.718;18.426;2023-02-28T04:16:34;9.60;;;4.45;;
77105;SDS011;66057;54.718;18.426;2023-02-28T04:19:02;4.00;;;3.38;;
77105;SDS011;66057;54.718;18.426;2023-02-28T04:21:31;6.28;;;4.03;;
77105;SDS011;66057;54.718;18.426;2023-02-28T04:23:58;8.30;;;6.00;;
77105;SDS011;66057;54.718;18.426;2023-02-28T04:26:33;9.57;;;5.47;;
77105;SDS011;66057;54.718;18.426;2023-02-28T04:29:03;7.65;;;5.22;;
77105;SDS011;66057;54.718;18.426;2023-02-28T04:33:56;10.85;;;6.53;;
77105;SDS011;66057;54.718;18.426;2023-02-28T04:36:23;9.13;;;6.63;;
77105;SDS011;66057;54.718;18.426;2023-02-28T04:38:49;13.75;;;7.50;;
77105;SDS011;66057;54.718;18.426;2023-02-28T04:41:15;9.90;;;6.38;;
77105;SDS011;66057;54.718;18.426;2023-02-28T04:43:42;6.60;;;4.78;;
77105;SDS011;66057;54.718;18.426;2023-02-28T04:46:14;6.75;;;4.43;;
77105;SDS011;66057;54.718;18.426;2023-02-28T04:48:41;7.53;;;4.55;;
77105;SDS011;66057;54.718;18.426;2023-02-28T04:51:11;5.65;;;3.10;;
77105;SDS011;66057;54.718;18.426;2023-02-28T04:53:40;9.80;;;4.30;;
77105;SDS011;66057;54.718;18.426;2023-02-28T04:56:08;5.90;;;3.83;;
77105;SDS011;66057;54.718;18.426;2023-02-28T04:58:45;7.78;;;3.15;;
77105;SDS011;66057;54.718;18.426;2023-02-28T05:01:17;7.68;;;6.43;;
77105;SDS011;66057;54.718;18.426;2023-02-28T05:03:59;3.53;;;2.58;;
77105;SDS011;66057;54.718;18.426;2023-02-28T05:06:27;8.85;;;5.60;;
77105;SDS011;66057;54.718;18.426;2023-02-28T05:08:57;11.85;;;5.20;;
77105;SDS011;66057;54.718;18.426;2023-02-28T05:11:24;5.43;;;3.60;;
77105;SDS011;66057;54.718;18.426;2023-02-28T05:13:54;7.05;;;4.93;;
77105;SDS011;66057;54.718;18.426;2023-02-28T05:16:20;7.90;;;4.82;;
77105;SDS011;66057;54.718;18.426;2023-02-28T05:18:47;11.65;;;5.35;;
77105;SDS011;66057;54.718;18.426;2023-02-28T05:24:00;7.07;;;5.50;;
77105;SDS011;66057;54.718;18.426;2023-02-28T05:26:34;6.45;;;5.10;;
77105;SDS011;66057;54.718;18.426;2023-02-28T05:29:05;10.43;;;5.88;;
77105;SDS011;66057;54.718;18.426;2023-02-28T05:31:31;11.05;;;7.75;;
77105;SDS011;66057;54.718;18.426;2023-02-28T05:33:58;7.68;;;4.85;;
77105;SDS011;66057;54.718;18.426;2023-02-28T05:36:24;7.63;;;5.05;;
77105;SDS011;66057;54.718;18.426;2023-02-28T05:38:51;7.28;;;4.65;;
77105;SDS011;66057;54.718;18.426;2023-02-28T05:41:17;12.73;;;7.68;;
77105;SDS011;66057;54.718;18.426;2023-02-28T05:43:46;9.00;;;5.82;;
77105;SDS011;66057;54.718;18.426;2023-02-28T05:46:12;9.30;;;6.90;;
77105;SDS011;66057;54.718;18.426;2023-02-28T05:48:40;8.77;;;4.80;;
77105;SDS011;66057;54.718;18.426;2023-02-28T05:51:07;10.50;;;5.47;;
77105;SDS011;66057;54.718;18.426;2023-02-28T05:53:34;7.18;;;4.72;;
77105;SDS011;66057;54.718;18.426;2023-02-28T05:56:00;7.03;;;3.90;;
77105;SDS011;66057;54.718;18.426;2023-02-28T05:58:27;7.28;;;4.13;;
77105;SDS011;66057;54.718;18.426;2023-02-28T06:00:58;6.65;;;4.63;;
77105;SDS011;66057;54.718;18.426;2023-02-28T06:06:09;4.32;;;3.33;;
77105;SDS011;66057;54.718;18.426;2023-02-28T06:08:35;7.22;;;3.83;;
77105;SDS011;66057;54.718;18.426;2023-02-28T06:11:04;9.50;;;5.13;;
77105;SDS011;66057;54.718;18.426;2023-02-28T06:13:32;7.20;;;3.65;;
77105;SDS011;66057;54.718;18.426;2023-02-28T06:16:01;9.48;;;3.72;;
77105;SDS011;66057;54.718;18.426;2023-02-28T06:18:27;11.57;;;4.13;;
77105;SDS011;66057;54.718;18.426;2023-02-28T06:20:53;13.40;;;5.70;;
77105;SDS011;66057;54.718;18.426;2023-02-28T06:23:22;8.02;;;4.70;;
77105;SDS011;66057;54.718;18.426;2023-02-28T06:25:48;11.80;;;7.55;;
77105;SDS011;66057;54.718;18.426;2023-02-28T06:28:20;9.32;;;6.07;;
77105;SDS011;66057;54.718;18.426;2023-02-28T06:30:52;5.30;;;2.88;;
77105;SDS011;66057;54.718;18.426;2023-02-28T06:33:18;9.52;;;4.93;;
77105;SDS011;66057;54.718;18.426;2023-02-28T06:35:49;5.07;;;3.85;;
77105;SDS011;66057;54.718;18.426;2023-02-28T06:38:16;9.43;;;4.47;;
77105;SDS011;66057;54.718;18.426;2023-02-28T06:40:43;3.92;;;3.35;;
77105;SDS011;66057;54.718;18.426;2023-02-28T06:43:09;12.77;;;8.98;;
77105;SDS011;66057;54.718;18.426;2023-02-28T06:45:42;12.88;;;7.60;;
77105;SDS011;66057;54.718;18.426;2023-02-28T06:48:17;10.57;;;5.70;;
77105;SDS011;66057;54.718;18.426;2023-02-28T06:50:45;6.30;;;4.45;;
77105;SDS011;66057;54.718;18.426;2023-02-28T06:53:14;8.77;;;4.35;;
77105;SDS011;66057;54.718;18.426;2023-02-28T06:55:40;7.57;;;4.53;;
77105;SDS011;66057;54.718;18.426;2023-02-28T06:58:07;7.60;;;3.70;;
77105;SDS011;66057;54.718;18.426;2023-02-28T07:00:41;12.80;;;10.23;;
77105;SDS011;66057;54.718;18.426;2023-02-28T07:03:10;6.07;;;3.78;;
77105;SDS011;66057;54.718;18.426;2023-02-28T07:05:37;6.57;;;3.65;;
77105;SDS011;66057;54.718;18.426;2023-02-28T07:08:04;5.20;;;3.63;;
77105;SDS011;66057;54.718;18.426;2023-02-28T07:10:32;5.97;;;4.35;;
77105;SDS011;66057;54.718;18.426;2023-02-28T07:13:03;3.22;;;2.80;;
77105;SDS011;66057;54.718;18.426;2023-02-28T07:15:30;3.28;;;1.80;;
77105;SDS011;66057;54.718;18.426;2023-02-28T07:17:59;4.53;;;3.17;;
77105;SDS011;66057;54.718;18.426;2023-02-28T07:20:25;8.45;;;3.50;;
77105;SDS011;66057;54.718;18.426;2023-02-28T07:22:51;7.45;;;2.80;;
77105;SDS011;66057;54.718;18.426;2023-02-28T07:25:23;5.47;;;1.85;;
77105;SDS011;66057;54.718;18.426;2023-02-28T07:27:55;5.97;;;3.55;;
77105;SDS011;66057;54.718;18.426;2023-02-28T07:30:24;3.90;;;2.85;;
77105;SDS011;66057;54.718;18.426;2023-02-28T07:32:50;4.40;;;3.42;;
77105;SDS011;66057;54.718;18.426;2023-02-28T07:35:16;7.95;;;4.68;;
77105;SDS011;66057;54.718;18.426;2023-02-28T07:37:42;8.82;;;4.18;;
77105;SDS011;66057;54.718;18.426;2023-02-28T07:40:09;9.65;;;3.50;;
77105;SDS011;66057;54.718;18.426;2023-02-28T07:42:40;10.73;;;5.75;;
77105;SDS011;66057;54.718;18.426;2023-02-28T07:45:06;9.68;;;4.45;;
77105;SDS011;66057;54.718;18.426;2023-02-28T07:47:37;13.57;;;5.07;;
77105;SDS011;66057;54.718;18.426;2023-02-28T07:50:05;12.00;;;6.00;;
77105;SDS011;66057;54.718;18.426;2023-02-28T07:52:31;10.65;;;5.32;;
77105;SDS011;66057;54.718;18.426;2023-02-28T07:54:57;11.95;;;4.93;;
77105;SDS011;66057;54.718;18.426;2023-02-28T07:57:25;12.73;;;5.00;;
77105;SDS011;66057;54.718;18.426;2023-02-28T07:59:51;7.03;;;3.15;;
77105;SDS011;66057;54.718;18.426;2023-02-28T08:02:17;3.78;;;3.05;;
77105;SDS011;66057;54.718;18.426;2023-02-28T08:04:44;8.63;;;5.10;;
77105;SDS011;66057;54.718;18.426;2023-02-28T08:07:12;7.25;;;4.65;;
77105;SDS011;66057;54.718;18.426;2023-02-28T08:09:38;10.00;;;5.95;;
77105;SDS011;66057;54.718;18.426;2023-02-28T08:12:11;6.80;;;4.50;;
77105;SDS011;66057;54.718;18.426;2023-02-28T08:14:38;10.60;;;5.13;;
77105;SDS011;66057;54.718;18.426;2023-02-28T08:17:05;12.05;;;5.05;;
77105;SDS011;66057;54.718;18.426;2023-02-28T08:19:32;12.68;;;5.55;;
77105;SDS011;66057;54.718;18.426;2023-02-28T08:21:58;9.65;;;4.78;;
77105;SDS011;66057;54.718;18.426;2023-02-28T08:24:24;8.70;;;5.03;;
77105;SDS011;66057;54.718;18.426;2023-02-28T08:26:50;6.15;;;4.07;;
77105;SDS011;66057;54.718;18.426;2023-02-28T08:29:16;11.13;;;6.13;;
77105;SDS011;66057;54.718;18.426;2023-02-28T08:31:45;6.50;;;3.72;;
77105;SDS011;66057;54.718;18.426;2023-02-28T08:34:15;14.00;;;5.47;;
77105;SDS011;66057;54.718;18.426;2023-02-28T08:36:42;12.65;;;5.95;;
77105;SDS011;66057;54.718;18.426;2023-02-28T08:39:15;5.90;;;3.90;;
77105;SDS011;66057;54.718;18.426;2023-02-28T08:41:53;6.95;;;3.22;;
77105;SDS011;66057;54.718;18.426;2023-02-28T08:44:19;7.32;;;4.68;;
77105;SDS011;66057;54.718;18.426;2023-02-28T08:46:50;14.48;;;6.03;;
77105;SDS011;66057;54.718;18.426;2023-02-28T08:49:17;7.90;;;4.65;;
77105;SDS011;66057;54.718;18.426;2023-02-28T08:51:51;15.18;;;6.13;;
77105;SDS011;66057;54.718;18.426;2023-02-28T08:54:17;11.35;;;4.55;;
77105;SDS011;66057;54.718;18.426;2023-02-28T08:56:45;8.48;;;5.82;;
77105;SDS011;66057;54.718;18.426;2023-02-28T08:59:14;7.05;;;4.38;;
77105;SDS011;66057;54.718;18.426;2023-02-28T09:01:41;7.47;;;5.30;;
77105;SDS011;66057;54.718;18.426;2023-02-28T09:04:07;10.05;;;4.22;;
77105;SDS011;66057;54.718;18.426;2023-02-28T09:06:37;11.25;;;4.85;;
77105;SDS011;66057;54.718;18.426;2023-02-28T09:09:03;8.27;;;4.50;;
77105;SDS011;66057;54.718;18.426;2023-02-28T09:11:33;5.28;;;2.08;;
77105;SDS011;66057;54.718;18.426;2023-02-28T09:14:00;12.65;;;4.13;;
77105;SDS011;66057;54.718;18.426;2023-02-28T09:16:26;9.93;;;4.60;;
77105;SDS011;66057;54.718;18.426;2023-02-28T09:18:52;10.32;;;4.65;;
77105;SDS011;66057;54.718;18.426;2023-02-28T09:21:19;11.43;;;4.90;;
77105;SDS011;66057;54.718;18.426;2023-02-28T09:23:45;8.98;;;4.15;;
77105;SDS011;66057;54.718;18.426;2023-02-28T09:26:16;6.15;;;3.65;;
77105;SDS011;66057;54.718;18.426;2023-02-28T09:28:44;5.43;;;2.05;;
77105;SDS011;66057;54.718;18.426;2023-02-28T09:31:15;13.85;;;4.88;;
77105;SDS011;66057;54.718;18.426;2023-02-28T09:33:46;6.18;;;3.13;;
77105;SDS011;66057;54.718;18.426;2023-02-28T09:36:16;8.57;;;4.13;;
77105;SDS011;66057;54.718;18.426;2023-02-28T09:38:42;8.23;;;3.53;;
77105;SDS011;66057;54.718;18.426;2023-02-28T09:41:42;7.63;;;3.03;;
77105;SDS011;66057;54.718;18.426;2023-02-28T09:44:17;4.90;;;2.45;;
77105;SDS011;66057;54.718;18.426;2023-02-28T09:46:47;3.63;;;1.58;;
77105;SDS011;66057;54.718;18.426;2023-02-28T09:49:19;5.35;;;1.98;;
77105;SDS011;66057;54.718;18.426;2023-02-28T09:54:38;5.63;;;2.75;;
77105;SDS011;66057;54.718;18.426;2023-02-28T09:57:13;6.63;;;2.35;;
77105;SDS011;66057;54.718;18.426;2023-02-28T10:00:07;3.55;;;2.13;;
77105;SDS011;66057;54.718;18.426;2023-02-28T10:02:55;3.40;;;1.58;;
77105;SDS011;66057;54.718;18.426;2023-02-28T10:05:26;4.00;;;1.92;;
77105;SDS011;66057;54.718;18.426;2023-02-28T10:10:44;5.80;;;1.80;;
77105;SDS011;66057;54.718;18.426;2023-02-28T10:16:02;5.60;;;2.00;;
77105;SDS011;66057;54.718;18.426;2023-02-28T10:18:46;2.72;;;0.90;;
77105;SDS011;66057;54.718;18.426;2023-02-28T10:21:17;2.42;;;0.93;;
77105;SDS011;66057;54.718;18.426;2023-02-28T10:23:49;8.23;;;2.95;;
77105;SDS011;66057;54.718;18.426;2023-02-28T10:26:24;4.00;;;1.77;;
77105;SDS011;66057;54.718;18.426;2023-02-28T10:28:54;5.18;;;2.30;;
77105;SDS011;66057;54.718;18.426;2023-02-28T10:31:20;2.75;;;1.60;;
77105;SDS011;66057;54.718;18.426;2023-02-28T10:33:46;4.80;;;1.80;;
77105;SDS011;66057;54.718;18.426;2023-02-28T10:36:17;2.72;;;2.28;;
77105;SDS011;66057;54.718;18.426;2023-02-28T10:38:46;3.25;;;1.45;;
77105;SDS011;66057;54.718;18.426;2023-02-28T10:41:26;5.68;;;2.17;;
77105;SDS011;66057;54.718;18.426;2023-02-28T10:44:11;2.13;;;1.83;;
77105;SDS011;66057;54.718;18.426;2023-02-28T10:46:47;5.68;;;2.60;;
77105;SDS011;66057;54.718;18.426;2023-02-28T10:49:22;3.70;;;2.00;;
77105;SDS011;66057;54.718;18.426;2023-02-28T10:51:52;2.78;;;1.40;;
77105;SDS011;66057;54.718;18.426;2023-02-28T10:54:27;2.53;;;1.17;;
77105;SDS011;66057;54.718;18.426;2023-02-28T10:57:26;3.85;;;1.45;;
77105;SDS011;66057;54.718;18.426;2023-02-28T10:59:52;1.55;;;1.17;;
77105;SDS011;66057;54.718;18.426;2023-02-28T11:02:38;2.38;;;1.45;;
77105;SDS011;66057;54.718;18.426;2023-02-28T11:07:53;1.83;;;0.47;;
77105;SDS011;66057;54.718;18.426;2023-02-28T11:10:22;4.97;;;1.83;;
77105;SDS011;66057;54.718;18.426;2023-02-28T11:12:56;4.22;;;2.33;;
77105;SDS011;66057;54.718;18.426;2023-02-28T11:15:26;3.58;;;1.40;;
77105;SDS011;66057;54.718;18.426;2023-02-28T11:20:42;2.47;;;1.30;;
77105;SDS011;66057;54.718;18.426;2023-02-28T11:23:16;2.83;;;1.80;;
77105;SDS011;66057;54.718;18.426;2023-02-28T11:25:50;7.97;;;2.58;;
77105;SDS011;66057;54.718;18.426;2023-02-28T11:28:30;2.38;;;1.52;;
77105;SDS011;66057;54.718;18.426;2023-02-28T11:33:41;5.70;;;1.25;;
77105;SDS011;66057;54.718;18.426;2023-02-28T11:36:18;2.70;;;1.23;;
77105;SDS011;66057;54.718;18.426;2023-02-28T11:38:53;3.58;;;1.60;;
77105;SDS011;66057;54.718;18.426;2023-02-28T11:46:56;5.47;;;1.70;;
77105;SDS011;66057;54.718;18.426;2023-02-28T11:52:26;3.10;;;2.38;;
77105;SDS011;66057;54.718;18.426;2023-02-28T11:57:49;8.60;;;2.80;;
77105;SDS011;66057;54.718;18.426;2023-02-28T12:00:38;3.88;;;2.05;;
77105;SDS011;66057;54.718;18.426;2023-02-28T12:03:30;3.55;;;1.98;;
77105;SDS011;66057;54.718;18.426;2023-02-28T12:06:08;6.50;;;2.63;;
77105;SDS011;66057;54.718;18.426;2023-02-28T12:11:51;5.82;;;2.42;;
77105;SDS011;66057;54.718;18.426;2023-02-28T12:20:08;2.47;;;1.20;;
77105;SDS011;66057;54.718;18.426;2023-02-28T12:23:01;6.68;;;2.42;;
77105;SDS011;66057;54.718;18.426;2023-02-28T12:25:53;3.42;;;1.60;;
77105;SDS011;66057;54.718;18.426;2023-02-28T12:28:23;3.53;;;1.27;;
77105;SDS011;66057;54.718;18.426;2023-02-28T12:31:01;3.78;;;1.02;;
77105;SDS011;66057;54.718;18.426;2023-02-28T12:33:36;4.82;;;1.25;;
77105;SDS011;66057;54.718;18.426;2023-02-28T12:36:09;5.70;;;1.45;;
77105;SDS011;66057;54.718;18.426;2023-02-28T12:38:39;3.63;;;1.08;;
77105;SDS011;66057;54.718;18.426;2023-02-28T12:41:12;2.72;;;1.05;;
77105;SDS011;66057;54.718;18.426;2023-02-28T12:43:50;2.95;;;0.98;;
77105;SDS011;66057;54.718;18.426;2023-02-28T12:49:40;4.20;;;2.13;;
77105;SDS011;66057;54.718;18.426;2023-02-28T12:52:03;5.45;;;1.65;;
77105;SDS011;66057;54.718;18.426;2023-02-28T12:57:19;5.57;;;1.50;;
77105;SDS011;66057;54.718;18.426;2023-02-28T12:59:56;5.82;;;0.73;;
77105;SDS011;66057;54.718;18.426;2023-02-28T13:10:45;2.28;;;0.82;;
77105;SDS011;66057;54.718;18.426;2023-02-28T13:13:16;4.43;;;0.98;;
77105;SDS011;66057;54.718;18.426;2023-02-28T13:15:59;4.72;;;1.00;;
77105;SDS011;66057;54.718;18.426;2023-02-28T13:21:09;6.45;;;1.98;;
77105;SDS011;66057;54.718;18.426;2023-02-28T13:29:04;2.78;;;1.30;;
77105;SDS011;66057;54.718;18.426;2023-02-28T13:34:31;7.13;;;1.67;;
77105;SDS011;66057;54.718;18.426;2023-02-28T13:39:46;2.75;;;1.65;;
77105;SDS011;66057;54.718;18.426;2023-02-28T13:58:51;2.38;;;0.85;;
77105;SDS011;66057;54.718;18.426;2023-02-28T14:06:51;3.85;;;1.40;;
77105;SDS011;66057;54.718;18.426;2023-02-28T14:11:57;6.95;;;1.27;;
77105;SDS011;66057;54.718;18.426;2023-02-28T14:18:21;4.78;;;2.00;;
77105;SDS011;66057;54.718;18.426;2023-02-28T14:21:08;1.65;;;0.73;;
77105;SDS011;66057;54.718;18.426;2023-02-28T14:26:49;1.30;;;0.93;;
77105;SDS011;66057;54.718;18.426;2023-02-28T14:38:35;3.72;;;1.65;;
77105;SDS011;66057;54.718;18.426;2023-02-28T14:41:18;6.07;;;3.20;;
77105;SDS011;66057;54.718;18.426;2023-02-28T14:43:51;4.57;;;2.15;;
77105;SDS011;66057;54.718;18.426;2023-02-28T14:46:19;5.22;;;2.15;;
77105;SDS011;66057;54.718;18.426;2023-02-28T14:48:46;11.68;;;2.92;;
77105;SDS011;66057;54.718;18.426;2023-02-28T14:51:17;4.65;;;2.30;;
77105;SDS011;66057;54.718;18.426;2023-02-28T14:53:45;10.35;;;2.88;;
77105;SDS011;66057;54.718;18.426;2023-02-28T14:56:22;8.55;;;3.05;;
77105;SDS011;66057;54.718;18.426;2023-02-28T14:58:57;7.40;;;1.83;;
77105;SDS011;66057;54.718;18.426;2023-02-28T15:01:23;7.82;;;2.03;;
77105;SDS011;66057;54.718;18.426;2023-02-28T15:03:57;8.23;;;3.17;;
77105;SDS011;66057;54.718;18.426;2023-02-28T15:06:28;7.43;;;2.28;;
77105;SDS011;66057;54.718;18.426;2023-02-28T15:09:14;9.43;;;3.45;;
77105;SDS011;66057;54.718;18.426;2023-02-28T15:11:45;6.82;;;2.72;;
77105;SDS011;66057;54.718;18.426;2023-02-28T15:14:15;11.52;;;3.13;;
77105;SDS011;66057;54.718;18.426;2023-02-28T15:16:44;5.90;;;2.30;;
77105;SDS011;66057;54.718;18.426;2023-02-28T15:19:15;6.10;;;1.65;;
77105;SDS011;66057;54.718;18.426;2023-02-28T15:21:49;8.02;;;3.67;;
77105;SDS011;66057;54.718;18.426;2023-02-28T15:26:54;17.00;;;5.25;;
77105;SDS011;66057;54.718;18.426;2023-02-28T15:29:25;13.60;;;4.57;;
77105;SDS011;66057;54.718;18.426;2023-02-28T15:31:57;9.73;;;5.32;;
77105;SDS011;66057;54.718;18.426;2023-02-28T15:34:38;9.00;;;3.45;;
77105;SDS011;66057;54.718;18.426;2023-02-28T15:37:24;6.97;;;3.63;;
77105;SDS011;66057;54.718;18.426;2023-02-28T15:39:51;6.95;;;3.65;;
77105;SDS011;66057;54.718;18.426;2023-02-28T15:42:21;4.75;;;2.58;;
77105;SDS011;66057;54.718;18.426;2023-02-28T15:44:52;6.28;;;2.10;;
77105;SDS011;66057;54.718;18.426;2023-02-28T15:47:21;8.57;;;2.35;;
77105;SDS011;66057;54.718;18.426;2023-02-28T15:49:56;13.88;;;3.92;;
77105;SDS011;66057;54.718;18.426;2023-02-28T15:55:07;11.32;;;3.25;;
77105;SDS011;66057;54.718;18.426;2023-02-28T15:57:42;6.90;;;3.67;;
77105;SDS011;66057;54.718;18.426;2023-02-28T16:00:15;6.68;;;3.83;;
77105;SDS011;66057;54.718;18.426;2023-02-28T16:02:43;6.80;;;3.33;;
77105;SDS011;66057;54.718;18.426;2023-02-28T16:07:37;6.35;;;3.88;;
77105;SDS011;66057;54.718;18.426;2023-02-28T16:10:07;10.93;;;4.15;;
77105;SDS011;66057;54.718;18.426;2023-02-28T16:12:38;6.00;;;3.45;;
77105;SDS011;66057;54.718;18.426;2023-02-28T16:15:07;12.90;;;5.50;;
77105;SDS011;66057;54.718;18.426;2023-02-28T16:17:42;14.55;;;5.63;;
77105;SDS011;66057;54.718;18.426;2023-02-28T16:20:13;8.95;;;3.85;;
77105;SDS011;66057;54.718;18.426;2023-02-28T16:22:45;9.98;;;5.18;;
77105;SDS011;66057;54.718;18.426;2023-02-28T16:25:16;21.05;;;8.05;;
77105;SDS011;66057;54.718;18.426;2023-02-28T16:27:46;29.45;;;15.27;;
77105;SDS011;66057;54.718;18.426;2023-02-28T16:30:23;32.75;;;16.35;;
77105;SDS011;66057;54.718;18.426;2023-02-28T16:32:52;16.77;;;8.95;;
77105;SDS011;66057;54.718;18.426;2023-02-28T16:35:20;13.73;;;9.35;;
77105;SDS011;66057;54.718;18.426;2023-02-28T16:37:46;22.05;;;10.88;;
77105;SDS011;66057;54.718;18.426;2023-02-28T16:40:17;21.77;;;9.00;;
77105;SDS011;66057;54.718;18.426;2023-02-28T16:42:57;24.35;;;10.25;;
77105;SDS011;66057;54.718;18.426;2023-02-28T16:45:26;26.52;;;12.18;;
77105;SDS011;66057;54.718;18.426;2023-02-28T16:47:54;17.67;;;7.88;;
77105;SDS011;66057;54.718;18.426;2023-02-28T16:50:22;9.55;;;4.50;;
77105;SDS011;66057;54.718;18.426;2023-02-28T16:52:50;8.90;;;4.07;;
77105;SDS011;66057;54.718;18.426;2023-02-28T16:55:23;8.40;;;4.22;;
77105;SDS011;66057;54.718;18.426;2023-02-28T17:00:30;14.57;;;4.75;;
77105;SDS011;66057;54.718;18.426;2023-02-28T17:03:02;10.90;;;4.95;;
77105;SDS011;66057;54.718;18.426;2023-02-28T17:05:30;7.55;;;3.17;;
77105;SDS011;66057;54.718;18.426;2023-02-28T17:08:01;12.52;;;3.72;;
77105;SDS011;66057;54.718;18.426;2023-02-28T17:10:32;5.63;;;2.80;;
77105;SDS011;66057;54.718;18.426;2023-02-28T17:12:57;8.52;;;3.95;;
77105;SDS011;66057;54.718;18.426;2023-02-28T17:15:25;7.65;;;3.42;;
77105;SDS011;66057;54.718;18.426;2023-02-28T17:17:51;11.23;;;2.75;;
77105;SDS011;66057;54.718;18.426;2023-02-28T17:20:20;4.88;;;2.45;;
77105;SDS011;66057;54.718;18.426;2023-02-28T17:22:51;6.13;;;2.78;;
77105;SDS011;66057;54.718;18.426;2023-02-28T17:25:22;8.93;;;4.10;;
77105;SDS011;66057;54.718;18.426;2023-02-28T17:30:24;4.88;;;3.05;;
77105;SDS011;66057;54.718;18.426;2023-02-28T17:32:55;7.43;;;3.85;;
77105;SDS011;66057;54.718;18.426;2023-02-28T17:35:24;11.68;;;5.53;;
77105;SDS011;66057;54.718;18.426;2023-02-28T17:37:54;9.93;;;4.78;;
77105;SDS011;66057;54.718;18.426;2023-02-28T17:40:26;7.60;;;3.78;;
77105;SDS011;66057;54.718;18.426;2023-02-28T17:42:54;5.22;;;3.13;;
77105;SDS011;66057;54.718;18.426;2023-02-28T17:45:22;7.95;;;3.33;;
77105;SDS011;66057;54.718;18.426;2023-02-28T17:47:48;11.57;;;3.45;;
77105;SDS011;66057;54.718;18.426;2023-02-28T17:50:17;9.30;;;4.70;;
77105;SDS011;66057;54.718;18.426;2023-02-28T17:52:45;8.52;;;4.32;;
77105;SDS011;66057;54.718;18.426;2023-02-28T17:55:12;16.17;;;3.72;;
77105;SDS011;66057;54.718;18.426;2023-02-28T17:57:38;6.97;;;4.75;;
77105;SDS011;66057;54.718;18.426;2023-02-28T18:00:05;6.20;;;3.50;;